Warm Springs Summit, Nevada Weather observations

Data are for observation ending at time listed.
 Day   Time    Ave.   Ave.  Ave.  Vector   Max.   Stn.    Total    Solar   Ave.  
  of    of     Air    Rel.  Wind   Wind    Wind   Baro.  Precip.   Rad.    Soil  
Year   Day     Temp.  Hum.  Speed  Dir.    Gust   Pres.                    Temp. 
2014   (PST)    F      %     mph   deg.    mph     mb.     in.     W/m2     F   
------------------------------------------------------------------------------
 323   18:50   38.4    30   19.7   244     22.9   771.7    0.00       0    46.5
 323   19:00   38.2    30   21.4   245     24.0   771.7    0.00       0    46.4
 323   19:10   38.0    30   19.9   248     22.9   771.7    0.00       0    46.4
 323   19:20   38.0    29   21.0   246     26.8   771.7    0.00       0    46.3
 323   19:30   37.7    29   22.0   248     24.8   771.8    0.00       0    46.3
 323   19:40   37.4    29   24.2   252     28.9   771.7    0.00       0    46.2
 323   19:50   37.2    29   26.1   254     29.3   771.6    0.00       0    46.1
 323   20:00   36.8    28   24.5   255     28.4   771.8    0.00       0    46.1
 323   20:10   36.5    28   22.5   256     26.7   771.8    0.00       0    46.0
 323   20:20   36.3    28   21.4   257     25.7   771.9    0.00       0    46.0
 323   20:30   36.5    28   19.8   260     24.7   771.9    0.00       0    45.9
 323   20:40   36.4    28   18.8   265     21.2   772.0    0.00       0    45.8
 323   20:50   36.6    28   19.1   267     22.9   772.0    0.00       0    45.7
 323   21:00   36.5    28   17.5   270     20.5   772.1    0.00       0    45.7
 323   21:10   36.5    28   19.1   265     22.8   772.0    0.00       0    45.6
 323   21:20   36.4    28   19.0   263     21.6   772.1    0.00       0    45.5
 323   21:30   36.2    28   17.3   264     21.6   772.2    0.00       0    45.4
 323   21:40   36.0    28   16.5   264     19.0   772.2    0.00       0    45.4
 323   21:50   35.7    28   15.9   270     17.6   772.3    0.00       0    45.3
 323   22:00   35.6    29   15.2   271     17.1   772.3    0.00       0    45.2
 323   22:10   35.3    29   14.3   276     16.3   772.3    0.00       0    45.1
 323   22:20   35.3    29   14.3   277     16.6   772.3    0.00       0    45.1
 323   22:30   35.1    29   15.3   273     17.0   772.3    0.00       0    45.0
 323   22:40   34.9    29   16.8   270     19.4   772.2    0.00       0    44.9
 323   22:50   34.8    29   19.3   267     21.8   772.1    0.00       0    44.8
 323   23:00   34.9    29   21.6   268     24.5   772.1    0.00       0    44.8
 323   23:10   34.6    29   21.1   270     23.1   772.1    0.00       0    44.7
 323   23:20   34.6    30   20.9   273     22.7   772.1    0.00       0    44.6
 323   23:30   34.4    30   21.1   272     23.3   772.1    0.00       0    44.5
 323   23:40   34.5    30   21.7   272     23.4   772.0    0.00       0    44.5
 323   23:50   34.5    30   20.6   273     22.3   772.1    0.00       0    44.4
 324    0:00   34.4    30   19.5   274     21.2   772.1    0.00       0    44.3
 324    0:10   34.4    30   19.5   272     21.2   772.1    0.00       0    44.2
 324    0:20   34.4    30   19.3   273     21.2   772.1    0.00       0    44.2
 324    0:30   34.6    30   18.8   274     21.3   772.1    0.00       0    44.1
 324    0:40   34.5    30   17.6   274     19.8   772.2    0.00       0    44.0
 324    0:50   34.6    30   17.5   275     19.4   772.1    0.00       0    44.0
 324    1:00   34.5    30   17.6   274     19.6   772.1    0.00       0    43.9
 324    1:10   34.4    30   15.9   276     17.4   772.1    0.00       0    43.8
 324    1:20   34.6    30   15.4   278     16.9   772.1    0.00       0    43.8
 324    1:30   34.4    30   17.4   279     19.5   772.0    0.00       0    43.7
 324    1:40   34.2    30   17.3   281     19.0   772.0    0.00       0    43.6
 324    1:50   34.1    30   17.7   280     19.3   772.0    0.00       0    43.6
 324    2:00   33.8    31   17.8   280     19.3   772.0    0.00       0    43.5
 324    2:10   33.8    31   17.5   278     19.5   772.0    0.00       0    43.4
 324    2:20   33.9    31   16.8   277     18.2   771.9    0.00       0    43.4
 324    2:30   34.2    30   16.9   282     17.7   771.9    0.00       0    43.3
 324    2:40   34.1    30   16.7   283     17.5   771.8    0.00       0    43.2
 324    2:50   34.2    30   16.3   284     17.1   771.8    0.00       0    43.2
 324    3:00   34.5    30   16.6   284     18.0   771.8    0.00       0    43.1
 324    3:10   34.4    30   15.5   282     17.1   771.8    0.00       0    43.1
 324    3:20   34.6    30   14.1   283     15.5   771.7    0.00       0    43.0
 324    3:30   35.0    30   13.6   284     15.6   771.8    0.00       0    42.9
 324    3:40   34.9    30   15.8   284     17.6   771.8    0.00       0    42.9
 324    3:50   34.6    30   15.8   282     18.0   771.8    0.00       0    42.8
 324    4:00   34.8    30   14.9   283     16.2   771.8    0.00       0    42.8
 324    4:10   35.2    30   13.5   284     15.4   771.9    0.00       0    42.7
 324    4:20   35.5    30   12.9   286     13.9   771.9    0.00       0    42.6
 324    4:30   35.3    30   12.6   286     14.4   771.9    0.00       0    42.6
 324    4:40   35.3    30   11.8   289     12.4   771.8    0.00       0    42.5
 324    4:50   35.2    30   11.1   288     12.3   771.8    0.00       0    42.5
 324    5:00   35.0    31   10.8   292     12.0   771.8    0.00       0    42.4
 324    5:10   34.7    31   11.2   290     12.7   771.9    0.00       0    42.4
 324    5:20   34.7    31   11.5   290     12.6   771.9    0.00       0    42.3
 324    5:30   34.8    31   11.3   294     12.0   771.9    0.00       0    42.3
 324    5:40   35.1    32   10.2   297     10.9   771.8    0.00       0    42.2
 324    5:50   36.1    30    8.7   305      9.6   771.7    0.00       0    42.2
 324    6:00   36.8    28    8.3   300      9.4   771.7    0.00       0    42.1
 324    6:10   36.0    30    9.7   295     10.7   771.8    0.00       0    42.1
 324    6:20   35.0    32    8.7   284      9.8   771.8    0.00       1    42.0
 324    6:30   34.8    32    8.2   286     10.3   771.8    0.00       4    42.0
 324    6:40   35.8    31    6.4   293      7.3   771.8    0.00       8    41.9
 324    6:50   36.8    30    5.6   300      6.5   771.7    0.00      22    41.8
 324    7:00   37.9    28    5.0   294      6.3   771.8    0.00      44    41.8
 324    7:10   37.6    29    5.4   283      7.6   771.9    0.00      74    41.7
 324    7:20   37.1    30    7.0   274      8.5   772.0    0.00     110    41.7
 324    7:30   37.2    30    7.8   276      9.2   772.1    0.00     146    41.6
 324    7:40   37.7    29    6.1   286      7.3   772.1    0.00     174    41.6
 324    7:50   38.4    28    5.9   287      6.6   772.1    0.00     201    41.6
 324    8:00   38.8    28    6.0   285      7.7   772.0    0.00     229    41.5
 324    8:10   39.6    26    3.7   292      6.0   772.0    0.00     257    41.5
 324    8:20   40.5    26    4.1   284      5.3   772.1    0.00     286    41.5
 324    8:30   40.3    26    4.2   284      5.4   772.1    0.00     313    41.4
 324    8:40   40.6    26    4.8   284      5.7   772.1    0.00     340    41.4
 324    8:50   41.8    25    2.7   267      4.4   772.1    0.00     366    41.5
 324    9:00   42.3    25    3.1   270      5.0   772.1    0.00     390    41.5
 324    9:10   42.4    25    3.0   278      4.3   772.2    0.00     414    41.5
 324    9:20   43.6    26    3.5   266      5.5   772.2    0.00     436    41.6
 324    9:30   42.7    25    6.0   258      8.1   772.2    0.00     458    41.7
 324    9:40   42.5    25    4.0   259      7.9   772.2    0.00     479    41.8
 324    9:50   44.1    24    4.7   235      7.3   772.2    0.00     504    41.9
 324   10:00   44.4    23    5.3   214      9.5   772.1    0.00     508    42.0
 324   10:10   45.4    22    5.9   173     11.8   771.9    0.00     520    42.2
 324   10:20   45.7    22    7.3   173     11.7   771.8    0.00     567    42.3
 324   10:30   46.2    22    6.0   184     10.6   771.7    0.00     556    42.5
 324   10:40   45.0    24    6.6   216     10.4   771.7    0.00     497    42.7
 324   10:50   45.8    24    7.2   187     10.9   771.6    0.00     573    42.9
 324   11:00   46.1    24    6.9   203     12.3   771.6    0.00     577    43.1
 324   11:10   44.9    26    7.7   226     12.1   771.4    0.00     540    43.3
 324   11:20   46.0    24    6.0   218     10.6   771.3    0.00     575    43.6
 324   11:30   45.7    25    7.3   234     11.9   771.2    0.00     513    43.8
 324   11:40   45.6    25    8.4   213     13.1   771.2    0.00     402    44.0
 324   11:50   44.3    26   11.4   244     17.0   771.1    0.00     420    44.3
 324   12:00   43.7    27   14.0   258     17.7   770.9    0.00     411    44.5
 324   12:10   43.1    27   13.0   258     17.7   770.8    0.00     399    44.8
 324   12:20   43.7    26   12.8   251     17.8   770.7    0.00     450    45.0
 324   12:30   43.9    26   13.5   257     17.4   770.6    0.00     384    45.2
 324   12:40   43.4    26   13.2   250     17.2   770.5    0.00     303    45.4
 324   12:50   43.6    26   13.1   246     17.7   770.4    0.00     281    45.7
 324   13:00   44.0    25   12.3   245     16.4   770.4    0.00     357    45.9
 324   13:10   44.2    25   12.1   250     18.2   770.3    0.00     281    46.0
 324   13:20   43.8    25   11.9   243     16.6   770.2    0.00     246    46.2
 324   13:30   44.0    25   10.7   235     16.0   770.2    0.00     298    46.4
 324   13:40   44.3    24    9.7   222     15.0   770.1    0.00     289    46.5
 324   13:50   44.8    22    8.3   223     13.1   770.0    0.00     334    46.7
 324   14:00   44.9    22    9.7   223     16.2   770.0    0.00     245    46.8
 324   14:10   44.4    22    7.9   237     14.9   769.9    0.00     156    46.9
 324   14:20   44.5    22    7.3   228     11.7   769.8    0.00     193    47.0
 324   14:30   44.6    22    6.2   214     11.4   769.8    0.00     197    47.1
 324   14:40   44.2    23    5.7   200      9.4   769.8    0.00     144    47.2
 324   14:50   44.4    24    3.9   170      8.5   769.7    0.00     129    47.3
 324   15:00   43.6    26    3.5   108      6.0   769.7    0.00     133    47.3
 324   15:10   43.3    26    3.2   129      4.8   769.6    0.00     109    47.4
 324   15:20   43.0    27    3.4   131      5.2   769.5    0.00      86    47.5
 324   15:30   42.7    27    3.4   133      5.4   769.4    0.00      74    47.5
 324   15:40   42.9    26    1.3   221      3.0   769.3    0.00      62    47.6
 324   15:50   42.7    26    2.5   214      3.7   769.3    0.00      54    47.6
 324   16:00   42.4    26    3.0   215      4.6   769.3    0.00      35    47.6
 324   16:10   42.1    27    1.1    13      2.4   769.3    0.00      16    47.7
 324   16:20   41.3    28    2.2   341      2.7   769.2    0.00       6    47.7
 324   16:30   40.9    28    2.1   351      4.1   769.2    0.00       2    47.7
 324   16:40   40.6    29    3.0    19      3.8   769.1    0.00       1    47.7
 324   16:50   40.8    28    1.8    41      3.3   769.1    0.00       0    47.7
 324   17:00   41.1    28    0.9    22      2.4   769.0    0.00       0    47.6
 324   17:10   41.2    27    0.1   266      2.0   769.0    0.00       0    47.6
 324   17:20   41.3    28    0.3   273      1.8   769.0    0.00       0    47.6
 324   17:30   41.2    28    0.7   250      2.8   769.0    0.00       0    47.6
 324   17:40   41.1    29    2.4    60      4.1   769.0    0.00       0    47.5
 324   17:50   40.9    29    3.4    45      4.7   768.9    0.00       0    47.5
 324   18:00   40.7    30    3.6    40      5.0   768.8    0.00       0    47.4
 324   18:10   40.7    30    4.2    51      5.4   768.8    0.00       0    47.3
 324   18:20   40.5    30    4.9    26      7.1   768.7    0.00       0    47.3
 324   18:30   40.6    30    3.7    22      6.2   768.7    0.00       0    47.2
 324   18:40   40.9    30    3.1    40      4.5   768.7    0.00       0    47.2

Return to Warm Springs Summit, Nevada graphs page.


Western Regional Climate Center,wrcc@dri.edu